Cape Peony — 3FDX6 — position and weather

sailwx.info

Track history (hours):
 
Tides and Currents Weather Stations Pressure Air Temp Water Temp Dewpoint Dewpoint Depression Visibility Wind Speed Wind Dir Waves Ship Positions

Cape Peony

Last reported at 2015-Jun-27 09:33 UTC. Time now 2015-Jul-03 22:02 UTC.
Position N 01°16' E 104°10'.

Length 292 m; draft 18.3 m.

Type: Ship. MMSI: 373590000.

Date/timePositionNaut miles runAvg speedWind from/ knotsBaromVisibWave heightAir tempDewpointWater temp
2015-Jun-27 09:33N 01°16' E 104°10'7 7.3
2015-Jun-27 08:33N 01°16' E 104°02'3 2.8
2015-Jun-27 07:26N 01°17' E 103°59'0 0.0
2015-Jun-27 06:32N 01°17' E 103°59'0 0.1
2015-Jun-27 05:20N 01°17' E 103°59'0 0.1
2015-Jun-27 03:11N 01°17' E 103°60'0 0.0
2015-Jun-27 02:29N 01°17' E 103°60'0 0.0
2015-Jun-27 01:29N 01°17' E 103°60'0 0.0
2015-Jun-27 00:32N 01°17' E 103°60'0 0.5
2015-Jun-26 23:34N 01°17' E 103°59'5 4.9
2015-Jun-26 22:34N 01°13' E 103°56'7 6.5
2015-Jun-26 21:32N 01°11' E 103°50'7 6.8
2015-Jun-26 20:33N 01°07' E 103°44'  
Track history (hours):
 
Tides and Currents Weather Stations Pressure Air Temp Water Temp Dewpoint Dewpoint Depression Visibility Wind Speed Wind Dir Waves Ship Positions

Cape Peony

Last reported at 2015-Jun-27 09:33 UTC. Time now 2015-Jul-03 22:02 UTC.
Position N 01°16' E 104°10'.

Length 292 m; draft 18.3 m.

Type: Ship. MMSI: 373590000.

Date/timePositionNaut miles runAvg speedWind from/ knotsBaromVisibWave heightAir tempDewpointWater temp
2015-Jun-27 09:33N 01°16' E 104°10'7 7.3
2015-Jun-27 08:33N 01°16' E 104°02'3 2.8
2015-Jun-27 07:26N 01°17' E 103°59'0 0.0
2015-Jun-27 06:32N 01°17' E 103°59'0 0.1
2015-Jun-27 05:20N 01°17' E 103°59'0 0.1
2015-Jun-27 03:11N 01°17' E 103°60'0 0.0
2015-Jun-27 02:29N 01°17' E 103°60'0 0.0
2015-Jun-27 01:29N 01°17' E 103°60'0 0.0
2015-Jun-27 00:32N 01°17' E 103°60'0 0.5
2015-Jun-26 23:34N 01°17' E 103°59'5 4.9
2015-Jun-26 22:34N 01°13' E 103°56'7 6.5
2015-Jun-26 21:32N 01°11' E 103°50'7 6.8
2015-Jun-26 20:33N 01°07' E 103°44'  

Dump ship's entire track history